createdAt,value
2024-02-29T00:01:44.848Z,31.05
2024-02-29T00:04:47.723Z,36.53
2024-02-29T00:07:50.512Z,34.75
2024-02-29T00:10:53.138Z,38.65
2024-02-29T00:13:56.148Z,30.90
2024-02-29T00:17:01.510Z,33.92
2024-02-29T00:20:10.210Z,32.53
2024-02-29T00:23:13.080Z,35.38
2024-02-29T00:26:19.616Z,35.03
2024-02-29T00:29:26.904Z,36.97
2024-02-29T00:32:29.763Z,38.47
2024-02-29T00:35:35.428Z,34.40
2024-02-29T00:38:39.970Z,35.33
2024-02-29T00:41:42.929Z,36.30
2024-02-29T00:44:45.757Z,36.90
2024-02-29T00:47:48.489Z,39.22
2024-02-29T00:50:51.273Z,38.40
2024-02-29T00:53:54.066Z,33.50
2024-02-29T00:56:56.862Z,34.03
2024-02-29T00:59:59.632Z,38.17
2024-02-29T01:03:03.712Z,39.17
2024-02-29T01:06:08.294Z,35.20
2024-02-29T01:09:11.235Z,37.67
2024-02-29T01:12:13.887Z,37.47
2024-02-29T01:15:17.212Z,38.80
2024-02-29T01:18:20.066Z,40.85
2024-02-29T01:21:22.917Z,36.10
2024-02-29T01:24:25.973Z,32.70
2024-02-29T01:27:28.889Z,37.70
2024-02-29T01:30:31.758Z,38.53
2024-02-29T01:33:34.627Z,40.33
2024-02-29T01:36:37.434Z,35.58
2024-02-29T01:39:40.240Z,37.80
2024-02-29T01:42:43.304Z,37.77
2024-02-29T01:45:47.161Z,37.90
2024-02-29T01:48:50.316Z,38.53
2024-02-29T01:51:54.302Z,36.83
2024-02-29T01:54:57.160Z,41.58
2024-02-29T01:57:59.930Z,35.47
2024-02-29T02:01:03.007Z,40.33
2024-02-29T02:04:05.839Z,39.70
2024-02-29T02:07:10.098Z,38.30
2024-02-29T02:10:13.290Z,44.30
2024-02-29T02:13:16.272Z,43.77
2024-02-29T02:16:19.081Z,39.50
2024-02-29T02:19:21.903Z,40.25
2024-02-29T02:22:25.807Z,35.67
2024-02-29T02:25:28.587Z,41.75
2024-02-29T02:28:31.349Z,39.70
2024-02-29T02:31:34.127Z,37.43
2024-02-29T02:34:36.942Z,38.10
2024-02-29T02:37:40.819Z,46.85
2024-02-29T02:40:43.553Z,43.05
2024-02-29T02:43:49.920Z,40.07
2024-02-29T02:46:52.701Z,40.13
2024-02-29T02:49:55.480Z,41.17
2024-02-29T02:53:05.612Z,41.75
2024-02-29T02:56:08.318Z,41.45
2024-02-29T02:59:11.168Z,45.63
2024-02-29T03:02:13.955Z,42.87
2024-02-29T03:05:17.169Z,46.22
2024-02-29T03:08:21.956Z,44.42
2024-02-29T03:11:24.747Z,46.10
2024-02-29T03:14:27.616Z,44.77
2024-02-29T03:17:31.034Z,39.80
2024-02-29T03:20:33.865Z,55.28
2024-02-29T03:23:36.562Z,42.65
2024-02-29T03:26:39.291Z,42.25
2024-02-29T03:29:43.613Z,47.70
2024-02-29T03:32:46.395Z,43.13
2024-02-29T03:35:49.190Z,45.42
2024-02-29T03:38:51.931Z,49.30
2024-02-29T03:41:54.581Z,44.88
2024-02-29T03:44:58.243Z,46.57
2024-02-29T03:48:01.236Z,47.77
2024-02-29T03:51:04.226Z,43.90
2024-02-29T03:54:06.937Z,46.13
2024-02-29T03:57:09.676Z,49.13
2024-02-29T04:00:13.378Z,39.63
2024-02-29T04:03:16.126Z,47.80
2024-02-29T04:06:18.934Z,47.05
2024-02-29T04:09:21.640Z,43.97
2024-02-29T04:12:24.372Z,44.95
2024-02-29T04:15:27.049Z,42.10
2024-02-29T04:18:29.791Z,40.23
2024-02-29T04:21:36.039Z,45.22
2024-02-29T04:24:38.913Z,43.25
2024-02-29T04:27:41.739Z,48.47
2024-02-29T04:30:44.625Z,46.97
2024-02-29T04:33:49.919Z,45.67
2024-02-29T04:36:54.594Z,48.72
2024-02-29T04:39:57.428Z,47.50
2024-02-29T04:43:00.367Z,42.33
2024-02-29T04:46:04.940Z,44.17
2024-02-29T04:49:07.802Z,38.20
2024-02-29T04:52:10.713Z,41.00
2024-02-29T04:55:13.572Z,41.60
2024-02-29T04:58:16.426Z,39.92
2024-02-29T05:01:19.268Z,39.63
2024-02-29T05:04:22.068Z,36.63
2024-02-29T05:07:24.825Z,39.50
2024-02-29T05:10:29.686Z,36.55
2024-02-29T05:13:32.340Z,37.17
2024-02-29T05:16:35.205Z,39.23
2024-02-29T05:19:39.262Z,42.53
2024-02-29T05:22:42.731Z,37.28
2024-02-29T05:25:45.405Z,37.10
2024-02-29T05:28:48.496Z,36.85
2024-02-29T05:31:54.945Z,41.30
2024-02-29T05:34:57.911Z,38.93
2024-02-29T05:38:00.872Z,41.72
2024-02-29T05:41:04.736Z,45.47
2024-02-29T05:44:09.031Z,41.53
2024-02-29T05:47:11.852Z,39.40
2024-02-29T05:50:14.640Z,42.47
2024-02-29T05:53:17.351Z,40.78
2024-02-29T05:56:19.994Z,39.13
2024-02-29T05:59:22.665Z,41.75
2024-02-29T06:02:25.475Z,42.63
2024-02-29T06:05:29.536Z,39.27
2024-02-29T06:08:32.326Z,37.35
2024-02-29T06:11:35.079Z,32.85
2024-02-29T06:14:37.839Z,36.92
2024-02-29T06:17:41.034Z,32.53
2024-02-29T06:20:43.943Z,35.83
2024-02-29T06:23:46.710Z,32.92
2024-02-29T06:27:10.980Z,32.60
2024-02-29T06:30:33.459Z,32.03
2024-02-29T06:33:37.602Z,29.80
2024-02-29T06:36:41.484Z,37.47
2024-02-29T06:39:44.235Z,34.80
2024-02-29T06:42:47.023Z,37.13
2024-02-29T06:45:50.866Z,33.47
2024-02-29T06:48:53.698Z,32.07
2024-02-29T06:51:56.612Z,35.80
2024-02-29T06:55:01.132Z,32.80
2024-02-29T06:58:06.041Z,33.38
2024-02-29T07:01:08.883Z,30.80
2024-02-29T07:04:11.824Z,31.83
2024-02-29T07:07:16.067Z,29.10
2024-02-29T07:10:18.951Z,30.80
2024-02-29T07:13:21.769Z,30.13
2024-02-29T07:16:24.652Z,34.90
2024-02-29T07:19:27.500Z,33.65
2024-02-29T07:22:30.234Z,34.27
2024-02-29T07:25:33.243Z,34.83
2024-02-29T07:28:35.997Z,53.55
2024-02-29T07:31:42.707Z,31.15
2024-02-29T07:34:45.645Z,31.23
2024-02-29T07:37:50.047Z,26.57
2024-02-29T07:40:53.832Z,27.20
2024-02-29T07:43:56.947Z,32.05
2024-02-29T07:46:59.716Z,28.60
2024-02-29T07:50:06.826Z,26.67
2024-02-29T07:53:10.310Z,21.37
2024-02-29T07:56:16.156Z,27.65
2024-02-29T07:59:18.881Z,34.67
2024-02-29T08:02:24.687Z,30.50
2024-02-29T08:05:28.060Z,28.92
2024-02-29T08:08:30.810Z,28.97
2024-02-29T08:11:33.576Z,26.42
2024-02-29T08:14:36.557Z,22.25
2024-02-29T08:17:39.426Z,25.27
2024-02-29T08:20:42.636Z,32.00
2024-02-29T08:23:47.362Z,27.03
2024-02-29T08:26:50.177Z,33.42
2024-02-29T08:29:53.007Z,32.92
2024-02-29T08:32:55.856Z,32.05
2024-02-29T08:35:59.108Z,27.67
2024-02-29T08:39:02.553Z,29.13
2024-02-29T08:42:05.598Z,26.10
2024-02-29T08:45:10.437Z,25.60
2024-02-29T08:48:13.454Z,28.05
2024-02-29T08:51:16.332Z,25.50
2024-02-29T08:54:19.061Z,22.13
2024-02-29T08:57:22.196Z,25.17
2024-02-29T09:00:25.382Z,19.88
2024-02-29T09:03:28.489Z,44.75
2024-02-29T09:06:41.261Z,32.78
2024-02-29T09:09:45.039Z,29.63
2024-02-29T09:12:48.047Z,25.90
2024-02-29T09:16:17.494Z,24.80
2024-02-29T09:19:20.430Z,27.95
2024-02-29T09:22:23.631Z,24.58
2024-02-29T09:25:26.429Z,25.70
2024-02-29T09:28:29.218Z,26.25
2024-02-29T09:31:33.018Z,21.65
2024-02-29T09:35:37.397Z,21.73
2024-02-29T09:38:40.334Z,22.98
2024-02-29T09:41:59.795Z,23.37
2024-02-29T09:45:38.930Z,21.15
2024-02-29T09:48:42.263Z,22.73
2024-02-29T09:51:46.091Z,25.42
2024-02-29T09:54:50.057Z,20.77
2024-02-29T09:57:54.129Z,20.83
2024-02-29T10:00:59.659Z,26.95
2024-02-29T10:04:04.651Z,25.05
2024-02-29T10:07:09.680Z,28.80
2024-02-29T10:10:18.210Z,26.38
2024-02-29T10:13:21.321Z,31.43
2024-02-29T10:16:27.118Z,25.55
2024-02-29T10:19:32.416Z,31.27
2024-02-29T10:22:35.205Z,29.83
2024-02-29T10:25:39.881Z,28.50
2024-02-29T10:28:43.768Z,24.73
2024-02-29T10:31:46.784Z,24.67
2024-02-29T10:34:50.118Z,26.15
2024-02-29T10:37:56.743Z,27.30
2024-02-29T10:41:04.387Z,26.65
2024-02-29T10:44:09.820Z,25.40
2024-02-29T10:47:16.422Z,26.02
2024-02-29T10:50:27.008Z,26.27
2024-02-29T10:54:01.492Z,25.67
2024-02-29T10:57:15.819Z,28.40
2024-02-29T11:00:21.750Z,25.13
2024-02-29T11:03:28.589Z,22.00
2024-02-29T11:07:01.252Z,25.00
2024-02-29T11:10:07.451Z,25.42
2024-02-29T11:13:11.043Z,28.15
2024-02-29T11:16:15.803Z,24.80
2024-02-29T11:19:19.986Z,26.73
2024-02-29T11:22:33.069Z,22.65
2024-02-29T11:25:36.021Z,23.42
2024-02-29T11:28:44.222Z,28.77
2024-02-29T11:31:51.801Z,25.63
2024-02-29T11:34:56.228Z,25.00
2024-02-29T11:38:02.592Z,26.05
2024-02-29T11:41:21.655Z,30.83
2024-02-29T11:44:24.682Z,23.85
2024-02-29T11:47:28.920Z,24.30
2024-02-29T11:54:22.060Z,26.27
2024-02-29T11:57:27.323Z,23.73
2024-02-29T12:00:39.928Z,33.85
2024-02-29T12:03:43.151Z,27.60
2024-02-29T12:06:48.387Z,23.83
2024-02-29T12:09:51.493Z,28.48
2024-02-29T12:12:54.526Z,25.45
2024-02-29T12:15:58.669Z,27.48
2024-02-29T12:19:02.097Z,31.67
2024-02-29T12:22:15.215Z,27.10
2024-02-29T12:25:19.187Z,28.23
2024-02-29T12:28:22.020Z,25.65
2024-02-29T12:31:24.859Z,27.95
2024-02-29T12:34:29.031Z,31.13
2024-02-29T12:37:31.891Z,28.65
2024-02-29T12:40:35.022Z,26.55
2024-02-29T12:43:38.312Z,27.88
2024-02-29T12:46:40.985Z,27.40
2024-02-29T12:49:44.381Z,26.63
2024-02-29T12:52:49.842Z,27.33
2024-02-29T12:55:53.663Z,34.40
2024-02-29T12:58:56.569Z,27.77
2024-02-29T13:02:01.141Z,28.90
2024-02-29T13:05:04.567Z,29.70
2024-02-29T13:08:10.042Z,25.92
2024-02-29T13:11:13.041Z,28.27
2024-02-29T13:14:16.949Z,26.33
2024-02-29T13:17:21.110Z,24.55
2024-02-29T13:20:23.912Z,22.13
2024-02-29T13:23:26.679Z,28.45
2024-02-29T13:26:29.402Z,25.02
2024-02-29T13:29:34.071Z,26.30
2024-02-29T13:32:36.874Z,29.35
2024-02-29T13:35:39.629Z,22.27
2024-02-29T13:38:42.764Z,24.23
2024-02-29T13:41:46.562Z,30.48
2024-02-29T13:44:51.059Z,29.45
2024-02-29T13:47:55.900Z,23.98
2024-02-29T13:50:59.314Z,25.80
2024-02-29T13:54:02.236Z,33.03
2024-02-29T13:57:05.630Z,32.13
2024-02-29T14:00:10.167Z,33.72
2024-02-29T14:03:16.859Z,34.53
2024-02-29T14:06:20.193Z,31.73
2024-02-29T14:09:22.907Z,32.45
2024-02-29T14:12:28.525Z,36.35
2024-02-29T14:15:31.392Z,30.17
2024-02-29T14:18:34.702Z,24.38
2024-02-29T14:21:37.632Z,25.40
2024-02-29T14:24:40.529Z,28.42
2024-02-29T14:27:43.790Z,29.63
2024-02-29T14:30:46.649Z,32.15
2024-02-29T14:33:51.845Z,23.02
2024-02-29T14:36:55.161Z,20.17
2024-02-29T14:39:58.724Z,22.25
2024-02-29T14:43:01.755Z,27.15
2024-02-29T14:46:07.818Z,24.35
2024-02-29T14:49:12.071Z,25.38
2024-02-29T14:52:15.185Z,22.73
2024-02-29T14:55:18.443Z,30.05
2024-02-29T14:58:22.406Z,22.30
2024-02-29T15:01:25.939Z,22.58
2024-02-29T15:04:29.032Z,21.50
2024-02-29T15:07:33.505Z,22.30
2024-02-29T15:10:36.444Z,27.83
2024-02-29T15:13:39.549Z,24.27
2024-02-29T15:16:46.702Z,23.35
2024-02-29T15:19:51.543Z,26.58
2024-02-29T15:23:04.830Z,21.57
2024-02-29T15:26:12.077Z,19.65
2024-02-29T15:29:16.415Z,19.65
2024-02-29T15:32:21.318Z,19.17
2024-02-29T15:35:31.589Z,22.45
2024-02-29T15:38:34.471Z,19.40
2024-02-29T15:41:38.636Z,22.25
2024-02-29T15:44:41.393Z,24.05
2024-02-29T15:47:44.897Z,23.65
2024-02-29T15:50:47.625Z,21.83
2024-02-29T15:53:50.379Z,20.70
2024-02-29T15:56:53.269Z,18.38
2024-02-29T15:59:57.014Z,20.33
2024-02-29T16:02:59.800Z,22.65
2024-02-29T16:06:02.545Z,23.65
2024-02-29T16:09:05.841Z,26.37
2024-02-29T16:12:12.578Z,23.20
2024-02-29T16:15:16.275Z,25.92
2024-02-29T16:18:18.991Z,23.70
2024-02-29T16:21:22.148Z,24.98
2024-02-29T16:24:24.916Z,22.10
2024-02-29T16:27:27.709Z,20.38
2024-02-29T16:30:30.814Z,25.05
2024-02-29T16:33:33.525Z,22.45
2024-02-29T16:36:38.289Z,25.38
2024-02-29T16:39:41.409Z,21.77
2024-02-29T16:42:56.275Z,22.55
2024-02-29T16:46:00.020Z,23.45
2024-02-29T16:49:03.263Z,21.48
2024-02-29T16:52:06.636Z,22.20
2024-02-29T16:55:09.866Z,22.67
2024-02-29T16:58:14.179Z,22.80
2024-02-29T17:01:17.075Z,22.27
2024-02-29T17:04:20.302Z,23.00
2024-02-29T17:07:23.632Z,22.30
2024-02-29T17:10:27.776Z,27.10
2024-02-29T17:13:30.883Z,34.45
2024-02-29T17:16:34.016Z,26.13
2024-02-29T17:19:36.766Z,26.42
2024-02-29T17:22:40.442Z,28.63
2024-02-29T17:25:43.400Z,32.27
2024-02-29T17:28:48.254Z,34.47
2024-02-29T17:31:51.327Z,30.60
2024-02-29T17:34:54.100Z,34.83
2024-02-29T17:37:58.412Z,52.22
2024-02-29T17:41:01.097Z,76.13
2024-02-29T17:44:04.142Z,60.47
2024-02-29T17:47:06.984Z,73.60
2024-02-29T17:50:20.856Z,95.78
2024-02-29T17:53:24.876Z,98.25
2024-02-29T17:56:27.637Z,71.43
2024-02-29T17:59:30.751Z,121.85
2024-02-29T18:02:34.211Z,90.55
2024-02-29T18:05:37.367Z,75.18
2024-02-29T18:08:40.175Z,62.75
2024-02-29T18:11:42.959Z,71.97
2024-02-29T18:14:45.788Z,62.13
2024-02-29T18:17:49.166Z,46.85
2024-02-29T18:20:52.193Z,43.53
2024-02-29T18:23:55.454Z,35.90
2024-02-29T18:26:58.679Z,33.53
2024-02-29T18:30:01.539Z,31.67
2024-02-29T18:33:04.994Z,29.48
2024-02-29T18:36:08.411Z,28.67
2024-02-29T18:39:15.147Z,29.33
2024-02-29T18:42:18.581Z,26.77
2024-02-29T18:45:21.671Z,29.77
2024-02-29T18:48:24.400Z,35.55
2024-02-29T18:51:27.767Z,36.40
2024-02-29T18:54:30.784Z,39.50
2024-02-29T18:57:33.462Z,45.10
2024-02-29T19:00:36.621Z,40.47
2024-02-29T19:03:39.591Z,41.78
2024-02-29T19:06:42.979Z,46.17
2024-02-29T19:09:46.829Z,47.95
2024-02-29T19:12:49.725Z,48.00
2024-02-29T19:15:53.148Z,47.22
2024-02-29T19:18:56.556Z,44.50
2024-02-29T19:21:59.774Z,43.42
2024-02-29T19:25:02.497Z,43.03
2024-02-29T19:28:05.478Z,38.17
2024-02-29T19:31:08.647Z,39.90
2024-02-29T19:34:11.874Z,47.35
2024-02-29T19:37:14.609Z,61.85
2024-02-29T19:40:17.527Z,61.37
2024-02-29T19:43:23.533Z,48.07
2024-02-29T19:46:26.908Z,38.13
2024-02-29T19:49:29.648Z,39.92
2024-02-29T19:52:35.913Z,44.55
2024-02-29T19:55:43.465Z,37.58
2024-02-29T19:58:46.257Z,41.90
2024-02-29T20:01:49.336Z,41.03
2024-02-29T20:04:52.756Z,31.85
2024-02-29T20:07:55.901Z,30.92
2024-02-29T20:10:58.823Z,28.10
2024-02-29T20:14:05.438Z,29.60
2024-02-29T20:17:08.958Z,29.05
2024-02-29T20:20:12.269Z,29.60
2024-02-29T20:23:15.173Z,28.23
2024-02-29T20:26:18.306Z,28.23
2024-02-29T20:29:21.335Z,35.57
2024-02-29T20:32:24.166Z,34.47
2024-02-29T20:35:26.874Z,33.28
2024-02-29T20:38:30.914Z,33.75
2024-02-29T20:41:33.665Z,34.42
2024-02-29T20:44:37.019Z,32.50
2024-02-29T20:47:40.531Z,33.50
2024-02-29T20:50:43.297Z,32.58
2024-02-29T20:53:45.994Z,32.90
2024-02-29T20:56:48.700Z,30.33
2024-02-29T20:59:51.602Z,32.57
2024-02-29T21:02:54.930Z,36.33
2024-02-29T21:05:58.402Z,35.53
2024-02-29T21:09:01.191Z,31.48
2024-02-29T21:12:04.127Z,34.00
2024-02-29T21:15:07.270Z,33.50
2024-02-29T21:18:10.116Z,31.27
2024-02-29T21:21:12.894Z,39.92
2024-02-29T21:24:16.138Z,37.13
2024-02-29T21:27:18.888Z,43.15
2024-02-29T21:30:21.638Z,34.77
2024-02-29T21:33:24.414Z,33.25
2024-02-29T21:36:27.194Z,34.88
2024-02-29T21:39:36.556Z,38.75
2024-02-29T21:42:43.219Z,37.10
2024-02-29T21:45:46.050Z,34.80
2024-02-29T21:48:50.076Z,35.13
2024-02-29T21:51:52.834Z,37.45
2024-02-29T21:54:55.625Z,34.72
2024-02-29T21:57:58.376Z,35.30
2024-02-29T22:01:01.301Z,31.90
2024-02-29T22:04:04.213Z,31.35
2024-02-29T22:07:07.373Z,34.85
2024-02-29T22:10:11.623Z,34.40
2024-02-29T22:13:14.399Z,32.90
2024-02-29T22:16:17.135Z,35.97
2024-02-29T22:19:20.727Z,31.25
2024-02-29T22:22:23.641Z,35.63
2024-02-29T22:25:26.527Z,32.30
2024-02-29T22:28:29.317Z,29.63
2024-02-29T22:31:32.512Z,33.07
2024-02-29T22:34:35.369Z,31.65
2024-02-29T22:37:38.470Z,33.13
2024-02-29T22:40:41.220Z,30.48
2024-02-29T22:43:44.061Z,30.90
2024-02-29T22:46:47.133Z,35.97
2024-02-29T22:49:49.850Z,38.08
2024-02-29T22:52:52.547Z,31.63
2024-02-29T22:55:56.495Z,33.85
2024-02-29T22:58:59.166Z,34.03
2024-02-29T23:02:02.162Z,32.47
2024-02-29T23:05:06.506Z,31.27
2024-02-29T23:08:11.588Z,31.02
2024-02-29T23:11:14.443Z,31.33
2024-02-29T23:14:17.314Z,29.60
2024-02-29T23:17:20.244Z,30.27
2024-02-29T23:20:23.754Z,32.30
2024-02-29T23:23:26.408Z,31.35
2024-02-29T23:26:29.064Z,33.15
2024-02-29T23:29:31.785Z,28.80
2024-02-29T23:32:35.190Z,35.00
2024-02-29T23:35:37.931Z,30.52
2024-02-29T23:38:40.627Z,30.55
2024-02-29T23:41:43.329Z,29.58
2024-02-29T23:44:46.030Z,31.17
2024-02-29T23:47:48.727Z,29.33
2024-02-29T23:50:51.448Z,31.90
2024-02-29T23:53:54.386Z,26.67
2024-02-29T23:56:59.935Z,29.75
